createdAt,value
2019-04-03T00:00:16.791Z,91.67
2019-04-03T00:01:21.067Z,91.56
2019-04-03T00:02:27.525Z,91.68
2019-04-03T00:03:31.087Z,91.91
2019-04-03T00:04:38.213Z,92.07
2019-04-03T00:05:41.166Z,91.58
2019-04-03T00:06:46.867Z,91.77
2019-04-03T00:07:49.885Z,91.85
2019-04-03T00:08:53.253Z,91.85
2019-04-03T00:09:56.443Z,91.76
2019-04-03T00:11:08.648Z,91.76
2019-04-03T00:12:10.963Z,91.26
2019-04-03T00:13:14.659Z,90.77
2019-04-03T00:14:17.813Z,90.77
2019-04-03T00:15:21.370Z,90.42
2019-04-03T00:16:24.607Z,89.99
2019-04-03T00:17:27.601Z,90.27
2019-04-03T00:18:30.626Z,89.37
2019-04-03T00:19:33.783Z,89.37
2019-04-03T00:20:36.889Z,90.14
2019-04-03T00:21:40.160Z,90.06
2019-04-03T00:22:45.920Z,89.77
2019-04-03T00:23:48.294Z,89.64
2019-04-03T00:24:52.597Z,89.69
2019-04-03T00:25:55.853Z,89.69
2019-04-03T00:26:58.883Z,89.83
2019-04-03T00:28:03.621Z,90.05
2019-04-03T00:29:13.938Z,89.38
2019-04-03T00:30:17.200Z,89.31
2019-04-03T00:31:21.600Z,89.32
2019-04-03T00:32:25.362Z,89.42
2019-04-03T00:33:28.357Z,88.97
2019-04-03T00:34:34.337Z,88.92
2019-04-03T00:35:37.996Z,89.14
2019-04-03T00:36:41.081Z,89.14
2019-04-03T00:37:44.023Z,88.85
2019-04-03T00:38:46.965Z,89.04
2019-04-03T00:39:49.998Z,88.99
2019-04-03T00:40:54.316Z,88.24
2019-04-03T00:41:57.898Z,87.71
2019-04-03T00:43:00.955Z,87.71
2019-04-03T00:44:04.142Z,87.75
2019-04-03T00:45:07.741Z,88.93
2019-04-03T00:46:10.855Z,89.08
2019-04-03T00:47:14.173Z,88.96
2019-04-03T00:48:17.223Z,89.75
2019-04-03T00:49:20.274Z,89.07
2019-04-03T00:50:23.439Z,89.07
2019-04-03T00:51:28.060Z,88.24
2019-04-03T00:52:31.306Z,87.71
2019-04-03T00:53:34.602Z,87.94
2019-04-03T00:54:37.621Z,87.91
2019-04-03T00:55:41.004Z,87.21
2019-04-03T00:56:43.821Z,87.21
2019-04-03T00:57:47.245Z,86.58
2019-04-03T00:58:50.565Z,86.54
2019-04-03T00:59:54.683Z,86.50
2019-04-03T01:00:58.469Z,86.79
2019-04-03T01:02:01.314Z,86.61
2019-04-03T01:03:04.214Z,85.79
2019-04-03T01:04:07.061Z,85.49
2019-04-03T01:05:09.902Z,85.33
2019-04-03T01:06:15.768Z,85.33
2019-04-03T01:07:18.766Z,85.91
2019-04-03T01:08:22.053Z,85.42
2019-04-03T01:09:24.952Z,85.61
2019-04-03T01:10:29.567Z,85.80
2019-04-03T01:11:32.315Z,85.80
2019-04-03T01:12:35.164Z,85.69
2019-04-03T01:13:38.142Z,85.62
2019-04-03T01:14:45.887Z,84.88
2019-04-03T01:15:49.451Z,85.21
2019-04-03T01:16:52.689Z,85.62
2019-04-03T01:17:57.412Z,85.82
2019-04-03T01:19:00.724Z,85.04
2019-04-03T01:20:06.054Z,84.52
2019-04-03T01:21:08.452Z,84.52
2019-04-03T01:22:11.314Z,84.73
2019-04-03T01:23:14.155Z,84.73
2019-04-03T01:24:17.363Z,85.14
2019-04-03T01:25:20.177Z,85.14
2019-04-03T01:26:23.002Z,84.54
2019-04-03T01:27:25.812Z,84.30
2019-04-03T01:28:29.087Z,83.64
2019-04-03T01:29:31.992Z,83.64
2019-04-03T01:30:35.505Z,83.60
2019-04-03T01:31:38.775Z,84.20
2019-04-03T01:32:41.994Z,83.85
2019-04-03T01:33:46.882Z,83.73
2019-04-03T01:34:52.132Z,83.94
2019-04-03T01:35:55.044Z,83.79
2019-04-03T01:36:58.253Z,83.79
2019-04-03T01:38:01.065Z,83.85
2019-04-03T01:39:04.336Z,84.09
2019-04-03T01:40:07.161Z,84.28
2019-04-03T01:41:10.020Z,84.18
2019-04-03T01:42:12.911Z,83.84
2019-04-03T01:43:16.045Z,84.55
2019-04-03T01:44:18.964Z,84.30
2019-04-03T01:45:21.815Z,84.37
2019-04-03T01:46:27.142Z,84.32
2019-04-03T01:47:29.181Z,84.32
2019-04-03T01:48:32.058Z,84.27
2019-04-03T01:49:35.243Z,84.50
2019-04-03T01:50:38.085Z,84.21
2019-04-03T01:51:40.920Z,84.70
2019-04-03T01:52:43.808Z,84.70
2019-04-03T01:53:46.644Z,84.21
2019-04-03T01:54:57.181Z,84.21
2019-04-03T01:56:01.262Z,83.83
2019-04-03T01:57:06.224Z,84.68
2019-04-03T01:58:08.726Z,84.68
2019-04-03T01:59:11.547Z,85.64
2019-04-03T02:00:14.385Z,85.60
2019-04-03T02:01:17.698Z,84.66
2019-04-03T02:02:20.621Z,84.49
2019-04-03T02:03:24.026Z,85.23
2019-04-03T02:04:27.285Z,85.01
2019-04-03T02:05:32.960Z,85.00
2019-04-03T02:06:35.798Z,85.29
2019-04-03T02:07:39.317Z,85.29
2019-04-03T02:08:44.269Z,84.57
2019-04-03T02:09:47.383Z,84.52
2019-04-03T02:10:50.208Z,84.46
2019-04-03T02:11:53.091Z,84.73
2019-04-03T02:12:56.054Z,84.57
2019-04-03T02:13:59.239Z,84.46
2019-04-03T02:15:02.105Z,84.61
2019-04-03T02:16:06.180Z,84.83
2019-04-03T02:17:12.957Z,84.83
2019-04-03T02:18:15.898Z,84.73
2019-04-03T02:19:18.732Z,84.73
2019-04-03T02:20:21.857Z,84.90
2019-04-03T02:21:27.277Z,84.96
2019-04-03T02:22:30.082Z,84.75
2019-04-03T02:23:33.046Z,84.75
2019-04-03T02:24:35.914Z,85.38
2019-04-03T02:25:38.734Z,86.20
2019-04-03T02:26:43.535Z,86.10
2019-04-03T02:27:46.498Z,86.10
2019-04-03T02:28:50.346Z,85.26
2019-04-03T02:29:53.429Z,85.95
2019-04-03T02:30:56.847Z,85.95
2019-04-03T02:32:00.603Z,85.48
2019-04-03T02:33:03.917Z,85.45
2019-04-03T02:34:06.876Z,85.45
2019-04-03T02:35:09.747Z,85.44
2019-04-03T02:36:13.170Z,85.59
2019-04-03T02:37:16.987Z,85.84
2019-04-03T02:38:22.684Z,85.11
2019-04-03T02:39:28.695Z,85.11
2019-04-03T02:40:33.069Z,86.10
2019-04-03T02:41:37.397Z,85.86
2019-04-03T02:42:41.915Z,85.87
2019-04-03T02:43:46.311Z,85.79
2019-04-03T02:44:51.245Z,85.76
2019-04-03T02:45:56.322Z,86.24
2019-04-03T02:47:01.064Z,86.09
2019-04-03T02:48:05.659Z,86.09
2019-04-03T02:49:10.191Z,86.58
2019-04-03T02:50:14.400Z,86.45
2019-04-03T02:51:19.784Z,86.53
2019-04-03T02:52:24.145Z,86.50
2019-04-03T02:53:27.536Z,86.50
2019-04-03T02:54:34.666Z,86.38
2019-04-03T02:55:39.040Z,85.60
2019-04-03T02:56:40.830Z,85.39
2019-04-03T02:57:48.445Z,85.53
2019-04-03T02:58:53.942Z,85.48
2019-04-03T02:59:58.785Z,85.48
2019-04-03T03:01:06.996Z,86.10
2019-04-03T03:02:06.741Z,87.41
2019-04-03T03:03:09.552Z,87.60
2019-04-03T03:04:12.706Z,87.83
2019-04-03T03:05:15.590Z,87.83
2019-04-03T03:06:18.524Z,87.31
2019-04-03T03:07:21.355Z,87.31
2019-04-03T03:08:24.523Z,87.21
2019-04-03T03:09:27.792Z,87.18
2019-04-03T03:10:31.846Z,87.19
2019-04-03T03:11:35.086Z,87.22
2019-04-03T03:12:39.560Z,86.95
2019-04-03T03:13:42.899Z,86.62
2019-04-03T03:14:45.912Z,86.52
2019-04-03T03:15:48.870Z,86.73
2019-04-03T03:16:52.499Z,86.69
2019-04-03T03:17:56.353Z,86.54
2019-04-03T03:19:00.859Z,86.64
2019-04-03T03:20:06.839Z,86.71
2019-04-03T03:21:11.789Z,86.52
2019-04-03T03:22:16.971Z,86.82
2019-04-03T03:23:23.395Z,86.22
2019-04-03T03:24:29.346Z,86.58
2019-04-03T03:25:33.569Z,86.33
2019-04-03T03:26:38.768Z,86.31
2019-04-03T03:27:42.720Z,85.95
2019-04-03T03:28:47.272Z,85.77
2019-04-03T03:29:51.201Z,86.08
2019-04-03T03:31:02.022Z,86.08
2019-04-03T03:32:11.607Z,86.22
2019-04-03T03:33:24.617Z,85.88
2019-04-03T03:34:12.544Z,85.88
2019-04-03T03:35:23.115Z,86.04
2019-04-03T03:36:24.857Z,85.82
2019-04-03T03:37:25.090Z,85.81
2019-04-03T03:38:28.782Z,85.36
2019-04-03T03:39:31.773Z,85.36
2019-04-03T03:40:34.620Z,85.28
2019-04-03T03:41:37.784Z,85.28
2019-04-03T03:42:40.668Z,85.08
2019-04-03T03:43:44.002Z,85.15
2019-04-03T03:44:50.013Z,85.03
2019-04-03T03:45:54.033Z,84.72
2019-04-03T03:46:59.356Z,85.16
2019-04-03T03:48:02.242Z,85.19
2019-04-03T03:49:05.601Z,84.88
2019-04-03T03:50:08.427Z,84.88
2019-04-03T03:51:11.277Z,84.10
2019-04-03T03:52:17.236Z,84.10
2019-04-03T03:53:20.672Z,84.45
2019-04-03T03:54:23.576Z,84.25
2019-04-03T03:55:26.432Z,84.14
2019-04-03T03:56:31.328Z,84.17
2019-04-03T03:57:37.993Z,84.61
2019-04-03T03:58:38.882Z,84.28
2019-04-03T03:59:42.100Z,83.83
2019-04-03T04:00:45.969Z,83.83
2019-04-03T04:01:49.674Z,84.03
2019-04-03T04:02:52.713Z,84.64
2019-04-03T04:03:56.575Z,84.38
2019-04-03T04:04:59.558Z,84.38
2019-04-03T04:06:02.741Z,84.23
2019-04-03T04:07:05.908Z,83.90
2019-04-03T04:08:11.723Z,84.30
2019-04-03T04:09:17.155Z,84.30
2019-04-03T04:10:23.974Z,84.30
2019-04-03T04:11:25.060Z,84.51
2019-04-03T04:12:29.291Z,84.49
2019-04-03T04:13:32.425Z,84.34
2019-04-03T04:14:35.349Z,84.80
2019-04-03T04:15:38.270Z,84.74
2019-04-03T04:16:41.166Z,84.64
2019-04-03T04:17:44.004Z,84.64
2019-04-03T04:18:47.125Z,84.95
2019-04-03T04:19:49.950Z,84.84
2019-04-03T04:20:52.848Z,84.91
2019-04-03T04:21:55.698Z,84.91
2019-04-03T04:22:58.582Z,84.55
2019-04-03T04:24:01.415Z,84.69
2019-04-03T04:25:06.304Z,84.69
2019-04-03T04:26:09.510Z,84.87
2019-04-03T04:27:12.327Z,84.87
2019-04-03T04:28:15.242Z,84.22
2019-04-03T04:29:18.093Z,84.59
2019-04-03T04:30:23.720Z,84.19
2019-04-03T04:31:27.012Z,84.59
2019-04-03T04:32:30.052Z,85.13
2019-04-03T04:33:33.092Z,84.88
2019-04-03T04:34:35.939Z,84.88
2019-04-03T04:35:41.058Z,84.39
2019-04-03T04:36:44.503Z,84.39
2019-04-03T04:37:47.657Z,84.91
2019-04-03T04:38:50.750Z,84.91
2019-04-03T04:39:53.740Z,84.37
2019-04-03T04:40:57.119Z,84.46
2019-04-03T04:42:03.471Z,84.93
2019-04-03T04:43:07.355Z,84.74
2019-04-03T04:44:10.431Z,85.04
2019-04-03T04:45:16.871Z,84.60
2019-04-03T04:46:19.726Z,85.13
2019-04-03T04:47:23.093Z,85.26
2019-04-03T04:48:26.068Z,84.79
2019-04-03T04:49:29.104Z,84.72
2019-04-03T04:50:33.309Z,84.72
2019-04-03T04:51:39.363Z,84.62
2019-04-03T04:52:44.219Z,84.28
2019-04-03T04:53:49.096Z,84.56
2019-04-03T04:54:52.013Z,84.56
2019-04-03T04:55:54.856Z,84.29
2019-04-03T04:57:05.007Z,84.29
2019-04-03T04:58:05.972Z,84.49
2019-04-03T04:59:13.143Z,84.24
2019-04-03T05:00:16.309Z,84.24
2019-04-03T05:01:19.436Z,84.36
2019-04-03T05:02:22.713Z,84.45
2019-04-03T05:03:26.345Z,84.39
2019-04-03T05:04:29.405Z,84.66
2019-04-03T05:05:32.441Z,84.12
2019-04-03T05:06:35.435Z,84.13
2019-04-03T05:07:38.355Z,84.13
2019-04-03T05:08:41.351Z,84.30
2019-04-03T05:09:44.814Z,84.18
2019-04-03T05:10:49.133Z,84.18
2019-04-03T05:11:52.420Z,84.42
2019-04-03T05:12:55.269Z,84.48
2019-04-03T05:13:58.226Z,84.65
2019-04-03T05:15:01.059Z,84.62
2019-04-03T05:16:04.240Z,84.62
2019-04-03T05:17:09.855Z,84.51
2019-04-03T05:18:15.906Z,84.51
2019-04-03T05:19:19.621Z,84.50
2019-04-03T05:20:23.668Z,84.15
2019-04-03T05:21:28.708Z,84.00
2019-04-03T05:22:34.247Z,84.01
2019-04-03T05:23:41.800Z,84.23
2019-04-03T05:24:44.775Z,84.23
2019-04-03T05:25:47.848Z,83.97
2019-04-03T05:26:50.703Z,84.32
2019-04-03T05:28:04.530Z,84.44
2019-04-03T05:29:08.564Z,84.44
2019-04-03T05:43:52.760Z,83.32
2019-04-03T05:44:56.444Z,83.02
2019-04-03T05:45:59.263Z,82.71
2019-04-03T05:47:02.264Z,82.71
2019-04-03T05:48:06.082Z,82.85
2019-04-03T05:49:10.953Z,83.29
2019-04-03T05:50:14.009Z,83.29
2019-04-03T05:51:17.151Z,82.22
2019-04-03T05:52:19.974Z,81.89
2019-04-03T05:53:22.865Z,81.89
2019-04-03T05:54:25.753Z,81.62
2019-04-03T05:55:29.053Z,81.79
2019-04-03T05:56:31.944Z,81.75
2019-04-03T05:57:34.773Z,81.75
2019-04-03T05:58:37.683Z,81.31
2019-04-03T05:59:43.516Z,81.26
2019-04-03T06:00:45.147Z,81.26
2019-04-03T06:01:48.013Z,81.37
2019-04-03T06:02:53.129Z,81.08
2019-04-03T06:03:56.658Z,81.48
2019-04-03T06:04:59.814Z,81.51
2019-04-03T06:06:05.819Z,81.15
2019-04-03T06:07:08.112Z,80.76
2019-04-03T06:08:13.514Z,81.13
2019-04-03T06:09:16.333Z,81.21
2019-04-03T06:10:19.491Z,80.75
2019-04-03T06:11:22.564Z,81.06
2019-04-03T06:12:25.962Z,81.08
2019-04-03T06:13:30.369Z,81.08
2019-04-03T06:14:36.006Z,81.12
2019-04-03T06:15:39.708Z,81.49
2019-04-03T06:16:42.819Z,81.77
2019-04-03T06:17:45.707Z,81.35
2019-04-03T06:18:48.772Z,81.17
2019-04-03T06:19:52.076Z,81.17
2019-04-03T06:20:54.951Z,81.09
2019-04-03T06:21:57.871Z,81.09
2019-04-03T06:23:00.932Z,81.57
2019-04-03T06:24:04.063Z,81.62
2019-04-03T06:25:06.999Z,81.62
2019-04-03T06:26:10.063Z,81.09
2019-04-03T06:27:13.408Z,81.65
2019-04-03T06:28:16.359Z,81.65
2019-04-03T06:29:19.651Z,81.56
2019-04-03T06:30:24.319Z,81.52
2019-04-03T06:31:27.741Z,81.52
2019-04-03T06:32:31.080Z,81.29
2019-04-03T06:33:35.818Z,81.62
2019-04-03T06:34:42.161Z,81.58
2019-04-03T06:35:45.356Z,81.58
2019-04-03T06:36:49.740Z,81.50
2019-04-03T06:37:53.165Z,81.10
2019-04-03T06:38:57.410Z,81.04
2019-04-03T06:40:03.276Z,81.21
2019-04-03T06:41:09.143Z,81.67
2019-04-03T06:42:15.381Z,81.67
2019-04-03T06:43:18.336Z,82.02
2019-04-03T06:44:22.635Z,81.83
2019-04-03T06:45:26.179Z,81.69
2019-04-03T06:46:30.448Z,81.69
2019-04-03T06:47:33.610Z,81.60
2019-04-03T06:48:39.288Z,81.47
2019-04-03T06:49:42.203Z,81.79
2019-04-03T06:50:48.304Z,82.33
2019-04-03T06:51:52.065Z,82.15
2019-04-03T06:52:55.960Z,81.78
2019-04-03T06:53:59.811Z,81.78
2019-04-03T06:55:03.998Z,81.78
2019-04-03T06:56:08.662Z,82.50
2019-04-03T06:57:13.919Z,82.49
2019-04-03T06:58:19.786Z,82.68
2019-04-03T06:59:22.806Z,82.69
2019-04-03T07:00:32.493Z,82.69
2019-04-03T07:01:35.656Z,83.07
2019-04-03T07:02:38.958Z,83.15
2019-04-03T07:03:42.276Z,83.40
2019-04-03T07:04:47.815Z,83.16
2019-04-03T07:05:53.218Z,82.97
2019-04-03T07:06:56.884Z,82.97
2019-04-03T07:08:01.299Z,83.04
2019-04-03T07:50:54.035Z,87.08
2019-04-03T07:51:57.616Z,87.78
2019-04-03T07:53:00.663Z,87.55
2019-04-03T07:54:04.759Z,87.66
2019-04-03T07:55:07.858Z,87.66
2019-04-03T07:56:12.106Z,87.42
2019-04-03T07:57:16.389Z,88.02
2019-04-03T07:58:20.896Z,88.53
2019-04-03T07:59:28.505Z,88.18
2019-04-03T08:00:31.788Z,88.44
2019-04-03T08:01:35.004Z,88.37
2019-04-03T08:02:38.069Z,88.37
2019-04-03T08:03:41.589Z,88.59
2019-04-03T08:04:46.221Z,88.20
2019-04-03T08:05:55.416Z,87.90
2019-04-03T08:06:58.600Z,88.11
2019-04-03T08:08:09.035Z,88.11
2019-04-03T08:09:12.243Z,88.71
2019-04-03T08:10:15.515Z,88.71
2019-04-03T08:11:25.779Z,88.24
2019-04-03T08:12:29.974Z,88.24
2019-04-03T08:13:32.824Z,87.99
2019-04-03T08:14:40.478Z,87.95
2019-04-03T08:15:44.506Z,88.04
2019-04-03T08:16:49.701Z,88.52
2019-04-03T08:17:56.959Z,88.36
2019-04-03T08:19:01.790Z,88.15
2019-04-03T08:20:04.761Z,87.71
2019-04-03T08:21:08.285Z,87.72
2019-04-03T08:22:11.179Z,88.53
2019-04-03T08:23:13.241Z,88.53
2019-04-03T08:24:17.162Z,87.78
2019-04-03T08:25:20.693Z,87.93
2019-04-03T08:26:27.247Z,87.93
2019-04-03T08:27:31.327Z,87.43
2019-04-03T08:28:34.369Z,86.85
2019-04-03T08:29:40.097Z,86.85
2019-04-03T08:30:46.000Z,86.75
2019-04-03T08:31:50.954Z,87.17
2019-04-03T08:32:56.243Z,87.75
2019-04-03T08:34:13.967Z,87.07
2019-04-03T08:35:22.482Z,87.61
2019-04-03T08:36:25.045Z,88.09
2019-04-03T08:37:30.170Z,88.33
2019-04-03T08:38:34.144Z,88.96
2019-04-03T08:39:36.930Z,88.96
2019-04-03T08:40:41.462Z,89.14
2019-04-03T08:41:46.823Z,90.42
2019-04-03T08:42:50.005Z,90.42
2019-04-03T08:43:52.815Z,91.39
2019-04-03T08:44:55.773Z,91.86
2019-04-03T08:45:59.089Z,94.26
2019-04-03T08:47:02.073Z,93.90
2019-04-03T08:48:06.344Z,94.67
2019-04-03T08:49:10.757Z,93.91
2019-04-03T08:50:13.778Z,95.01
2019-04-03T08:51:18.768Z,95.79
2019-04-03T08:52:22.141Z,95.79
2019-04-03T08:53:25.189Z,94.63
2019-04-03T08:54:28.023Z,93.67
2019-04-03T08:55:30.758Z,93.26
2019-04-03T08:56:34.091Z,93.86
2019-04-03T08:57:39.973Z,93.06
2019-04-03T08:58:48.841Z,94.27
2019-04-03T08:59:53.876Z,94.27
2019-04-03T09:00:56.626Z,94.56
2019-04-03T09:01:59.390Z,94.05
2019-04-03T09:03:03.624Z,94.05
2019-04-03T09:04:06.972Z,93.83
2019-04-03T09:05:13.564Z,92.98
2019-04-03T09:06:17.069Z,92.98
2019-04-03T09:07:21.517Z,93.16
2019-04-03T09:08:26.497Z,93.15
2019-04-03T09:09:35.804Z,92.24
2019-04-03T09:10:39.400Z,93.19
2019-04-03T09:11:42.607Z,92.95
2019-04-03T09:12:45.554Z,92.86
2019-04-03T09:13:55.817Z,92.86
2019-04-03T09:15:00.029Z,91.71
2019-04-03T09:16:05.882Z,91.71
2019-04-03T09:17:11.359Z,91.80
2019-04-03T09:18:15.585Z,91.80
2019-04-03T09:19:22.048Z,92.24
2019-04-03T09:20:25.005Z,92.26
2019-04-03T09:21:31.021Z,92.26
2019-04-03T09:22:36.672Z,92.60
2019-04-03T09:23:40.073Z,92.60
2019-04-03T09:24:50.325Z,91.85
2019-04-03T09:25:53.357Z,92.14
2019-04-03T09:26:59.181Z,92.56
2019-04-03T09:28:04.294Z,91.68
2019-04-03T09:29:07.374Z,92.25
2019-04-03T09:30:15.472Z,91.79
2019-04-03T09:31:19.505Z,91.86
2019-04-03T09:32:22.692Z,91.86
2019-04-03T09:33:29.896Z,91.80
2019-04-03T09:34:35.576Z,91.35
2019-04-03T09:35:42.736Z,92.31
2019-04-03T09:36:44.871Z,92.31
2019-04-03T09:37:48.117Z,92.29
2019-04-03T09:38:53.166Z,92.29
2019-04-03T09:40:02.084Z,93.08
2019-04-03T09:41:02.935Z,92.25
2019-04-03T09:42:06.085Z,92.28
2019-04-03T09:43:13.677Z,92.13
2019-04-03T09:44:19.512Z,91.80
2019-04-03T09:45:22.583Z,91.71
2019-04-03T09:46:25.747Z,91.71
2019-04-03T09:47:35.816Z,92.60
2019-04-03T09:48:39.797Z,92.60
2019-04-03T09:49:44.176Z,92.44
2019-04-03T09:50:53.177Z,92.45
2019-04-03T09:51:57.571Z,92.71
2019-04-03T09:53:02.712Z,93.08
2019-04-03T09:54:05.217Z,92.25
2019-04-03T09:55:12.111Z,92.90
2019-04-03T09:56:15.406Z,93.26
2019-04-03T09:57:22.106Z,93.68
2019-04-03T09:58:25.293Z,94.00
2019-04-03T09:59:29.213Z,93.86
2019-04-03T10:00:31.967Z,93.93
2019-04-03T10:01:34.689Z,93.93
2019-04-03T10:02:37.813Z,92.73
2019-04-03T10:03:40.611Z,93.03
2019-04-03T10:04:43.457Z,92.59
2019-04-03T10:05:49.575Z,92.30
2019-04-03T10:06:52.875Z,92.78
2019-04-03T10:07:55.684Z,92.78
2019-04-03T10:08:58.707Z,92.83
2019-04-03T10:10:01.901Z,93.11
2019-04-03T10:11:08.565Z,93.11
2019-04-03T10:12:11.751Z,93.40
2019-04-03T10:13:14.622Z,93.46
2019-04-03T10:14:20.630Z,93.86
2019-04-03T10:15:24.952Z,93.59
2019-04-03T10:16:30.149Z,93.59
2019-04-03T10:17:32.920Z,93.48
2019-04-03T10:18:36.192Z,93.74
2019-04-03T10:19:38.967Z,93.81
2019-04-03T10:20:44.930Z,93.93
2019-04-03T10:21:51.739Z,93.93
2019-04-03T10:22:56.259Z,93.31
2019-04-03T10:24:00.379Z,93.38
2019-04-03T10:25:05.447Z,93.10
2019-04-03T10:26:12.429Z,93.10
2019-04-03T10:27:15.547Z,92.36
2019-04-03T10:28:18.959Z,92.29
2019-04-03T10:29:24.535Z,91.71
2019-04-03T10:42:38.086Z,92.25
2019-04-03T10:43:40.684Z,92.29
2019-04-03T10:44:50.193Z,92.02
2019-04-03T10:45:53.010Z,92.44
2019-04-03T10:46:58.880Z,92.36
2019-04-03T10:48:03.336Z,92.57
2019-04-03T10:49:06.347Z,92.38
2019-04-03T10:50:12.012Z,92.30
2019-04-03T10:51:14.715Z,92.02
2019-04-03T10:52:20.574Z,92.02
2019-04-03T10:53:29.790Z,91.89
2019-04-03T10:54:32.860Z,91.34
2019-04-03T10:55:35.734Z,91.63
2019-04-03T10:56:38.790Z,91.83
2019-04-03T10:57:44.117Z,91.42
2019-04-03T10:58:49.720Z,91.42
2019-04-03T10:59:54.974Z,90.64
2019-04-03T11:00:59.067Z,90.52
2019-04-03T11:02:03.516Z,90.52
2019-04-03T11:03:06.311Z,91.06
2019-04-03T11:04:12.204Z,91.06
2019-04-03T11:05:15.309Z,90.54
2019-04-03T11:06:24.143Z,90.93
2019-04-03T11:07:27.830Z,89.72
2019-04-03T11:08:30.661Z,89.94
2019-04-03T11:09:33.643Z,90.40
2019-04-03T11:10:36.723Z,90.53
2019-04-03T11:11:39.487Z,90.63
2019-04-03T11:12:43.303Z,90.76
2019-04-03T11:13:46.170Z,90.76
2019-04-03T11:14:49.432Z,89.27
2019-04-03T11:15:52.498Z,89.11
2019-04-03T11:16:55.346Z,89.82
2019-04-03T11:17:58.312Z,89.64
2019-04-03T11:19:05.039Z,89.13
2019-04-03T11:20:13.299Z,89.93
2019-04-03T11:21:16.085Z,89.52
2019-04-03T11:22:21.213Z,89.26
2019-04-03T11:23:38.401Z,89.36
2019-04-03T11:24:30.638Z,88.90
2019-04-03T11:25:33.321Z,88.90
2019-04-03T11:26:36.205Z,89.54
2019-04-03T11:28:51.897Z,89.76
2019-04-03T11:29:58.184Z,89.48
2019-04-03T11:30:55.515Z,89.68
2019-04-03T11:31:01.917Z,89.48
2019-04-03T11:32:09.918Z,89.20
2019-04-03T11:33:14.832Z,88.99
2019-04-03T11:34:19.940Z,88.99
2019-04-03T11:35:24.126Z,88.34
2019-04-03T11:36:31.819Z,88.27
2019-04-03T11:37:35.124Z,87.87
2019-04-03T11:38:39.207Z,87.79
2019-04-03T11:39:44.073Z,88.18
2019-04-03T11:40:47.780Z,88.18
2019-04-03T11:41:54.463Z,88.64
2019-04-03T11:42:56.123Z,87.34
2019-04-03T11:43:59.445Z,88.04
2019-04-03T11:45:04.356Z,87.82
2019-04-03T11:46:07.359Z,88.59
2019-04-03T11:47:12.352Z,89.47
2019-04-03T11:48:17.300Z,89.47
2019-04-03T11:49:20.784Z,90.54
2019-04-03T11:50:25.358Z,90.57
2019-04-03T11:51:29.630Z,91.22
2019-04-03T11:52:33.109Z,91.83
2019-04-03T11:53:38.048Z,91.42
2019-04-03T11:54:41.624Z,90.76
2019-04-03T11:55:44.495Z,90.76
2019-04-03T11:56:48.006Z,91.08
2019-04-03T11:57:51.427Z,91.37
2019-04-03T11:58:59.653Z,90.64
2019-04-03T12:00:09.743Z,90.56
2019-04-03T12:01:16.800Z,90.07
2019-04-03T12:02:20.628Z,90.07
2019-04-03T12:03:23.713Z,88.95
2019-04-03T12:04:26.866Z,88.56
2019-04-03T12:05:30.459Z,88.61
2019-04-03T12:06:41.141Z,87.82
2019-04-03T12:07:44.499Z,88.54
2019-04-03T12:08:48.160Z,88.75
2019-04-03T12:09:52.428Z,88.47
2019-04-03T12:10:55.250Z,88.77
2019-04-03T12:11:58.023Z,88.78
2019-04-03T12:13:03.602Z,88.87
2019-04-03T12:14:15.012Z,88.53
2019-04-03T12:15:21.957Z,88.53
2019-04-03T12:16:26.167Z,86.08
2019-04-03T12:17:31.046Z,86.08
2019-04-03T12:18:41.191Z,81.95
2019-04-03T12:19:46.673Z,81.66
2019-04-03T12:20:50.480Z,81.78
2019-04-03T12:22:02.414Z,81.20
2019-04-03T12:23:08.406Z,81.20
2019-04-03T12:24:13.984Z,82.59
2019-04-03T12:25:16.753Z,82.46
2019-04-03T12:26:23.366Z,82.99
2019-04-03T12:27:29.529Z,83.75
2019-04-03T12:28:36.259Z,84.03
2019-04-03T12:29:41.080Z,83.50
2019-04-03T12:30:47.103Z,83.50
2019-04-03T12:31:50.239Z,83.09
2019-04-03T12:33:00.421Z,84.27
2019-04-03T12:34:06.429Z,82.83
2019-04-03T12:35:09.820Z,83.23
2019-04-03T12:36:14.342Z,82.66
2019-04-03T12:37:18.682Z,81.39
2019-04-03T12:38:22.477Z,81.39
2019-04-03T12:39:29.703Z,81.19
2019-04-03T12:40:34.142Z,82.07
2019-04-03T12:41:38.029Z,82.52
2019-04-03T12:42:45.775Z,83.01
2019-04-03T12:43:49.985Z,83.01
2019-04-03T12:44:55.349Z,83.18
2019-04-03T12:46:02.260Z,83.27
2019-04-03T12:47:05.637Z,83.27
2019-04-03T12:48:08.898Z,82.68
2019-04-03T12:49:12.785Z,82.82
2019-04-03T12:50:22.079Z,83.06
2019-04-03T12:51:24.869Z,82.57
2019-04-03T12:52:34.852Z,82.57
2019-04-03T12:53:37.275Z,83.09
2019-04-03T12:54:40.127Z,83.68
2019-04-03T12:55:43.163Z,83.83
2019-04-03T12:56:50.923Z,83.83
2019-04-03T12:57:58.462Z,83.42
2019-04-03T12:59:01.857Z,83.43
2019-04-03T13:00:05.419Z,83.43
2019-04-03T13:01:11.572Z,83.42
2019-04-03T13:02:19.078Z,83.27
2019-04-03T13:03:24.213Z,83.92
2019-04-03T13:04:31.216Z,83.57
2019-04-03T13:05:39.873Z,83.79
2019-04-03T13:06:42.692Z,83.96
2019-04-03T13:07:47.204Z,83.96
2019-04-03T13:08:50.595Z,84.02
2019-04-03T13:09:53.591Z,84.02
2019-04-03T13:10:58.144Z,83.52
2019-04-03T13:12:03.971Z,83.30
2019-04-03T13:13:06.799Z,82.97
2019-04-03T13:14:13.516Z,83.21
2019-04-03T13:15:13.924Z,83.73
2019-04-03T13:16:17.031Z,83.38
2019-04-03T13:17:21.147Z,83.38
2019-04-03T13:18:24.371Z,83.22
2019-04-03T13:19:27.095Z,83.11
2019-04-03T13:20:30.438Z,83.11
2019-04-03T13:21:33.287Z,84.37
2019-04-03T13:22:36.550Z,84.22
2019-04-03T13:23:46.163Z,84.22
2019-04-03T13:24:49.692Z,83.74
2019-04-03T13:25:53.173Z,83.45
2019-04-03T13:26:58.021Z,83.58
2019-04-03T13:28:03.923Z,83.58
2019-04-03T13:29:08.588Z,83.29
2019-04-03T13:30:13.745Z,83.41
2019-04-03T13:31:19.789Z,83.41
2019-04-03T13:32:26.412Z,82.23
2019-04-03T13:33:32.472Z,82.68
2019-04-03T13:34:38.112Z,82.68
2019-04-03T13:35:44.896Z,82.02
2019-04-03T13:36:51.368Z,81.52
2019-04-03T13:37:56.144Z,80.88
2019-04-03T13:39:02.206Z,80.29
2019-04-03T13:40:07.489Z,80.29
2019-04-03T13:41:11.285Z,79.63
2019-04-03T13:42:17.441Z,79.44
2019-04-03T13:43:21.588Z,79.52
2019-04-03T13:44:26.963Z,80.50
2019-04-03T13:45:31.033Z,81.08
2019-04-03T13:46:36.405Z,81.08
2019-04-03T13:47:41.766Z,79.70
2019-04-03T13:48:44.981Z,80.91
2019-04-03T13:49:50.108Z,80.71
2019-04-03T13:50:56.491Z,80.71
2019-04-03T13:52:07.720Z,81.19
2019-04-03T13:53:11.943Z,81.16
2019-04-03T13:54:15.284Z,80.79
2019-04-03T13:55:18.751Z,81.04
2019-04-03T13:56:24.082Z,81.04
2019-04-03T13:57:28.340Z,82.41
2019-04-03T13:58:34.217Z,82.35
2019-04-03T13:59:39.748Z,82.41
2019-04-03T14:00:42.565Z,82.11
2019-04-03T14:01:53.056Z,82.47
2019-04-03T14:02:58.327Z,82.75
2019-04-03T14:04:04.217Z,82.75
2019-04-03T14:05:07.032Z,82.60
2019-04-03T14:06:09.855Z,82.96
2019-04-03T14:07:13.059Z,83.12
2019-04-03T14:08:18.601Z,83.12
2019-04-03T14:09:21.724Z,82.51
2019-04-03T14:10:27.400Z,82.33
2019-04-03T14:11:31.437Z,82.82
2019-04-03T14:12:39.219Z,82.27
2019-04-03T14:13:43.671Z,82.27
2019-04-03T14:14:49.065Z,82.40
2019-04-03T14:15:58.316Z,82.60
2019-04-03T14:17:05.471Z,81.73
2019-04-03T14:18:10.884Z,81.75
2019-04-03T14:19:15.421Z,81.83
2019-04-03T14:20:18.169Z,80.80
2019-04-03T14:21:21.278Z,80.80
2019-04-03T14:22:24.400Z,81.37
2019-04-03T14:23:27.516Z,81.37
2019-04-03T14:24:39.295Z,81.07
2019-04-03T14:25:39.195Z,81.07
2019-04-03T14:26:44.407Z,81.38
2019-04-03T14:27:46.624Z,80.57
2019-04-03T14:29:07.986Z,81.33
2019-04-03T14:30:12.153Z,81.33
2019-04-03T14:31:17.505Z,81.69
2019-04-03T14:32:44.537Z,82.50
2019-04-03T14:33:49.929Z,82.46
2019-04-03T14:35:04.812Z,82.41
2019-04-03T14:36:03.069Z,82.34
2019-04-03T14:37:09.930Z,82.34
2019-04-03T14:38:13.013Z,82.47
2019-04-03T14:39:16.268Z,82.22
2019-04-03T14:40:22.618Z,82.23
2019-04-03T14:41:30.891Z,82.23
2019-04-03T14:42:33.478Z,81.86
2019-04-03T14:43:36.457Z,80.69
2019-04-03T14:44:45.587Z,81.24
2019-04-03T14:45:51.712Z,82.43
2019-04-03T14:46:57.782Z,82.69
2019-04-03T14:48:05.180Z,82.41
2019-04-03T14:49:10.033Z,82.41
2019-04-03T14:50:12.905Z,82.50
2019-04-03T14:51:16.292Z,82.50
2019-04-03T14:52:19.052Z,82.89
2019-04-03T14:53:22.583Z,82.83
2019-04-03T14:54:25.791Z,82.83
2019-04-03T14:55:45.817Z,83.00
2019-04-03T14:56:39.175Z,82.82